Aurora, Iowa
Current Conditions -  °F | °C
As of 3:15 PM on Sunday 23 Nov 2014 (Local Time) from KOLZ Reporting Station
Overcast Overcast  
Wind Chill: 10°   Ceiling: 300
Heat Index: 10°   Visibility: 8mi
Dew Point: 10°   Wind: 6mph
Humidity: 100%   Direction: 140°SE
Pressure: 29.36"   Gusts: NA
Location:  42.62°N, 91.73°W
Report Text: KOLZ 232115Z AUTO 14005KT 8SM OVC003 10/10 A2936 RMK AO2
Loading
Personal Weather Stations






























Interactive Weather Map New forecast layout! Learn more

10-Day Weather Forecast

Advertisements
Track Severe Weather on mobile